Time;durP1;ratioP1;P1;durP2;ratioP2;P2;SDS_P1;SDS_P2;PMS_P1;PMS_P2;Temp;Humidity;BMP_temperature;BMP_pressure;BME280_temperature;BME280_humidity;BME280_pressure;Samples;Min_cycle;Max_cycle;Signal;HPM_P1;HPM_P2
2021/07/04 00:01:03;;;;;;;9.40;5.72;;;;;;;17.11;98.08;98516.14;1667720;85;20932;-74
2021/07/04 00:03:30;;;;;;;12.07;5.35;;;;;;;17.08;98.13;98515.52;1675435;85;21550;-75
2021/07/04 00:05:56;;;;;;;11.95;5.95;;;;;;;17.05;98.10;98515.49;1675542;85;21494;-75
2021/07/04 00:08:24;;;;;;;10.58;5.53;;;;;;;17.03;98.20;98517.26;1675382;85;21565;-74
2021/07/04 00:10:55;;;;;;;6.97;5.25;;;;;;;16.99;98.09;98517.81;1675401;85;21513;-74
2021/07/04 00:13:22;;;;;;;11.50;4.92;;;;;;;16.92;97.96;98517.75;1675613;85;20984;-75
2021/07/04 00:15:48;;;;;;;16.10;5.47;;;;;;;16.88;98.27;98514.74;1675480;85;20909;-75
2021/07/04 00:18:19;;;;;;;10.93;5.75;;;;;;;16.85;98.55;98514.92;1675456;85;21139;-75
2021/07/04 00:20:46;;;;;;;7.90;5.93;;;;;;;16.82;98.65;98509.55;1675860;85;20885;-74
2021/07/04 00:23:13;;;;;;;15.25;6.72;;;;;;;16.80;98.79;98511.11;1675387;85;20984;-74
2021/07/04 00:25:40;;;;;;;11.43;6.05;;;;;;;16.75;98.78;98505.95;1675594;85;20944;-74
2021/07/04 00:28:07;;;;;;;13.08;6.20;;;;;;;16.74;99.03;98515.44;1675570;85;20900;-74
2021/07/04 00:30:34;;;;;;;10.35;6.35;;;;;;;16.72;98.92;98513.63;1675631;85;21084;-73
2021/07/04 00:33:00;;;;;;;16.30;7.03;;;;;;;16.69;98.81;98522.70;1675363;85;21487;-74
2021/07/04 00:35:27;;;;;;;17.10;7.80;;;;;;;16.64;98.86;98521.08;1675654;84;20925;-73
2021/07/04 00:37:53;;;;;;;22.82;7.70;;;;;;;16.62;99.13;98519.25;1675277;85;21512;-74
2021/07/04 00:40:21;;;;;;;17.95;7.30;;;;;;;16.63;99.38;98522.81;1675604;85;20984;-74
2021/07/04 00:42:48;;;;;;;24.90;8.28;;;;;;;16.62;99.41;98514.30;1675432;85;22142;-73
2021/07/04 00:45:19;;;;;;;28.35;12.53;;;;;;;16.60;99.41;98513.29;1675344;85;21005;-73
2021/07/04 00:47:47;;;;;;;16.82;9.33;;;;;;;16.63;99.85;98522.23;1675316;85;20925;-73
2021/07/04 00:50:15;;;;;;;19.27;9.43;;;;;;;16.65;100.00;98514.95;1675652;85;21508;-74
2021/07/04 00:52:42;;;;;;;14.20;9.25;;;;;;;16.66;100.00;98517.34;1675348;85;21004;-75
2021/07/04 00:55:09;;;;;;;14.40;8.65;;;;;;;16.64;100.00;98518.31;1656558;85;21499;-73
2021/07/04 00:57:36;;;;;;;11.90;8.43;;;;;;;16.68;100.00;98513.60;1675548;85;20949;-73
2021/07/04 01:00:06;;;;;;;11.43;7.53;;;;;;;16.73;100.00;98515.23;1656519;85;20932;-73
2021/07/04 01:02:34;;;;;;;11.65;7.92;;;;;;;16.80;100.00;98512.50;1675764;85;21516;-73
2021/07/04 01:05:08;;;;;;;9.48;7.87;;;;;;;16.83;100.00;98510.34;1675506;85;20912;-74
2021/07/04 01:07:34;;;;;;;15.00;9.10;;;;;;;16.84;100.00;98508.58;1675515;85;21736;-74
2021/07/04 01:10:01;;;;;;;12.00;8.00;;;;;;;16.87;100.00;98508.41;1675507;85;20984;-74
2021/07/04 01:12:29;;;;;;;12.58;8.08;;;;;;;16.88;100.00;98503.06;1679160;85;20928;-74
2021/07/04 01:14:55;;;;;;;9.20;8.15;;;;;;;16.90;100.00;98502.09;1675470;85;20933;-75
2021/07/04 01:17:22;;;;;;;9.48;8.28;;;;;;;16.90;100.00;98503.48;1656284;85;21003;-74
2021/07/04 01:19:50;;;;;;;15.32;9.75;;;;;;;16.91;100.00;98503.69;1656686;85;21059;-75
2021/07/04 01:22:17;;;;;;;20.12;10.35;;;;;;;16.91;100.00;98502.89;1675393;85;20901;-74
2021/07/04 01:24:44;;;;;;;14.07;9.75;;;;;;;16.93;100.00;98499.15;1675526;85;21547;-74
2021/07/04 01:27:10;;;;;;;18.35;9.78;;;;;;;16.93;100.00;98497.17;1675644;85;21015;-73
2021/07/04 01:29:36;;;;;;;16.80;9.83;;;;;;;16.94;100.00;98494.61;1658118;85;20896;-73
2021/07/04 01:32:04;;;;;;;17.57;10.10;;;;;;;16.95;100.00;98499.56;1678905;84;21704;-74
2021/07/04 01:34:30;;;;;;;13.38;9.60;;;;;;;16.96;100.00;98491.45;1675614;85;20968;-74
2021/07/04 01:36:59;;;;;;;15.48;9.08;;;;;;;16.96;100.00;98489.48;1675563;85;21436;-74
2021/07/04 01:39:28;;;;;;;15.58;10.60;;;;;;;16.97;100.00;98492.45;1675497;85;20937;-73
2021/07/04 01:41:56;;;;;;;16.75;10.25;;;;;;;16.97;100.00;98491.07;1675002;85;21439;-73
2021/07/04 01:44:25;;;;;;;13.62;9.80;;;;;;;17.00;100.00;98490.89;1675532;85;21165;-73
2021/07/04 01:46:52;;;;;;;16.45;9.65;;;;;;;16.99;100.00;98485.94;1675433;85;20976;-74
2021/07/04 01:49:19;;;;;;;11.45;8.88;;;;;;;16.98;100.00;98481.57;1675652;85;20956;-74
2021/07/04 01:51:46;;;;;;;15.25;9.23;;;;;;;16.98;100.00;98492.66;1675706;85;20909;-74
2021/07/04 01:54:15;;;;;;;14.03;10.00;;;;;;;16.96;100.00;98488.09;1675017;85;20949;-74
2021/07/04 01:56:41;;;;;;;12.93;9.58;;;;;;;16.95;100.00;98496.79;1675805;85;22109;-74
2021/07/04 01:59:10;;;;;;;13.85;9.50;;;;;;;16.94;100.00;98497.97;1675580;85;21011;-74
2021/07/04 02:01:41;;;;;;;12.45;9.85;;;;;;;16.91;100.00;98498.14;1669850;85;21012;-74
2021/07/04 02:04:07;;;;;;;13.00;10.23;;;;;;;16.89;100.00;98492.77;1677237;85;20911;-74
2021/07/04 02:06:35;;;;;;;14.50;9.78;;;;;;;16.87;100.00;98495.93;1675779;84;20932;-74
2021/07/04 02:09:03;;;;;;;14.28;9.50;;;;;;;16.89;100.00;98493.57;1675566;85;22187;-74
2021/07/04 02:11:30;;;;;;;15.08;10.08;;;;;;;16.88;100.00;98496.14;1675653;85;21015;-74
2021/07/04 02:13:59;;;;;;;14.38;10.40;;;;;;;16.90;100.00;98499.91;1675413;85;21562;-74
2021/07/04 02:16:28;;;;;;;13.75;9.40;;;;;;;16.89;100.00;98503.27;1673961;85;21511;-74
2021/07/04 02:18:59;;;;;;;12.50;10.38;;;;;;;16.88;100.00;98502.27;1675592;85;20845;-74
2021/07/04 02:21:39;;;;;;;14.18;9.75;;;;;;;16.89;100.00;98512.98;1647092;85;21566;-74
2021/07/04 02:24:05;;;;;;;13.90;9.30;;;;;;;16.89;100.00;98503.27;1675400;85;21428;-74
2021/07/04 02:26:36;;;;;;;16.37;9.63;;;;;;;16.90;100.00;98511.00;1675544;85;21431;-75
2021/07/04 02:29:04;;;;;;;13.98;9.70;;;;;;;16.90;100.00;98514.57;1674591;85;20961;-74
2021/07/04 02:31:36;;;;;;;11.15;9.55;;;;;;;16.92;100.00;98519.14;1675570;85;20917;-74
2021/07/04 02:34:03;;;;;;;13.93;9.28;;;;;;;16.95;100.00;98522.53;1671751;85;21584;-75
2021/07/04 02:36:31;;;;;;;11.60;9.10;;;;;;;16.96;100.00;98519.97;1629261;86;20922;-75
2021/07/04 02:39:00;;;;;;;12.30;9.23;;;;;;;16.96;100.00;98526.10;1606211;88;20957;-76
2021/07/04 02:41:26;;;;;;;13.93;9.43;;;;;;;16.95;100.00;98535.01;1616440;88;21128;-75
2021/07/04 02:43:53;;;;;;;12.65;9.88;;;;;;;16.95;100.00;98532.83;1616628;88;21585;-75
2021/07/04 02:46:22;;;;;;;12.47;9.60;;;;;;;16.98;100.00;98536.22;1605942;89;20942;-75
2021/07/04 02:48:51;;;;;;;12.95;9.28;;;;;;;17.00;100.00;98531.09;1605964;89;20981;-75
2021/07/04 02:51:19;;;;;;;14.93;10.20;;;;;;;17.01;100.00;98536.25;1605933;89;20890;-75
2021/07/04 02:53:48;;;;;;;18.15;9.73;;;;;;;17.04;100.00;98536.88;1605905;89;21469;-75
2021/07/04 02:56:16;;;;;;;13.70;9.88;;;;;;;17.08;100.00;98539.67;1606231;88;20966;-76
2021/07/04 02:58:43;;;;;;;12.73;10.08;;;;;;;17.09;100.00;98542.66;1605981;89;21657;-75
2021/07/04 03:01:10;;;;;;;13.35;9.33;;;;;;;17.11;100.00;98546.64;1605878;89;21544;-74
2021/07/04 03:03:37;;;;;;;12.13;10.03;;;;;;;17.15;100.00;98554.41;1628594;85;20926;-75
2021/07/04 03:06:04;;;;;;;10.15;9.13;;;;;;;17.18;100.00;98551.45;1647964;86;21077;-75
2021/07/04 03:08:32;;;;;;;16.85;10.72;;;;;;;17.24;100.00;98554.67;1648316;87;21016;-75
2021/07/04 03:11:00;;;;;;;15.78;9.73;;;;;;;17.27;100.00;98555.29;1648020;86;21057;-75
2021/07/04 03:13:29;;;;;;;14.43;9.98;;;;;;;17.30;100.00;98556.70;1648167;86;20930;-75
2021/07/04 03:15:57;;;;;;;10.58;9.23;;;;;;;17.33;100.00;98546.81;1628963;87;20898;-75
2021/07/04 03:18:24;;;;;;;10.70;9.30;;;;;;;17.40;100.00;98555.17;1648216;86;20978;-75
2021/07/04 03:20:51;;;;;;;13.60;9.65;;;;;;;17.46;100.00;98555.02;1648019;87;20961;-75
2021/07/04 03:23:18;;;;;;;11.43;9.78;;;;;;;17.51;100.00;98558.81;1648213;87;20960;-74
2021/07/04 03:25:46;;;;;;;13.18;10.60;;;;;;;17.55;100.00;98555.48;1647774;86;20922;-75
2021/07/04 03:28:14;;;;;;;15.55;11.73;;;;;;;17.60;100.00;98553.73;1648022;86;21513;-75
2021/07/04 03:30:41;;;;;;;15.50;12.82;;;;;;;17.63;100.00;98559.09;1630114;85;20986;-76
2021/07/04 03:33:08;;;;;;;17.55;12.82;;;;;;;17.66;100.00;98560.55;1631181;85;21461;-77
2021/07/04 03:35:34;;;;;;;18.15;11.95;;;;;;;17.71;100.00;98562.16;1606134;89;21044;-75
2021/07/04 03:38:03;;;;;;;14.58;10.95;;;;;;;17.76;100.00;98562.59;1606124;88;20910;-75
2021/07/04 03:40:29;;;;;;;15.18;10.53;;;;;;;17.81;100.00;98562.23;1605902;89;20919;-75
2021/07/04 03:42:58;;;;;;;16.00;10.70;;;;;;;17.85;100.00;98558.67;1606463;88;20958;-75
2021/07/04 03:45:27;;;;;;;13.93;11.20;;;;;;;17.91;100.00;98558.52;1637753;85;20860;-74
2021/07/04 03:47:54;;;;;;;17.42;10.65;;;;;;;17.96;100.00;98562.28;1675332;85;21180;-75
2021/07/04 03:50:22;;;;;;;14.90;11.12;;;;;;;18.01;100.00;98559.93;1675143;85;20929;-76
2021/07/04 03:52:54;;;;;;;15.70;10.10;;;;;;;18.08;100.00;98569.69;1675484;85;20928;-74
2021/07/04 03:55:20;;;;;;;11.40;9.13;;;;;;;18.17;100.00;98566.55;1675638;85;21095;-75
2021/07/04 03:57:47;;;;;;;12.80;11.10;;;;;;;18.28;100.00;98564.62;1675570;85;20924;-75
2021/07/04 04:00:21;;;;;;;14.38;11.80;;;;;;;18.34;100.00;98566.43;1675316;85;21965;-74
2021/07/04 04:02:49;;;;;;;17.55;10.90;;;;;;;18.39;100.00;98568.84;1675539;85;21390;-73
2021/07/04 04:05:17;;;;;;;19.52;11.65;;;;;;;18.41;100.00;98569.23;1675239;85;20897;-74
2021/07/04 04:07:47;;;;;;;17.02;11.90;;;;;;;18.48;100.00;98567.25;1675506;85;20940;-77
2021/07/04 04:10:14;;;;;;;15.05;11.70;;;;;;;18.61;100.00;98577.45;1675730;85;20940;-75
2021/07/04 04:12:43;;;;;;;16.62;12.45;;;;;;;18.73;100.00;98574.91;1677523;85;21788;-78
2021/07/04 04:15:11;;;;;;;15.65;11.78;;;;;;;18.80;100.00;98567.97;1675672;85;21652;-74
2021/07/04 04:17:39;;;;;;;13.93;11.90;;;;;;;18.87;100.00;98580.50;1641545;85;20918;-72
2021/07/04 04:20:09;;;;;;;16.77;11.73;;;;;;;18.94;100.00;98579.12;1635648;86;20984;-76
2021/07/04 04:22:37;;;;;;;29.48;13.18;;;;;;;19.00;100.00;98572.58;1647957;87;20962;-76
2021/07/04 04:25:07;;;;;;;13.15;11.43;;;;;;;19.12;100.00;98578.53;1644754;85;21013;-76
2021/07/04 04:27:35;;;;;;;14.35;11.40;;;;;;;19.23;99.39;98572.17;1638801;87;22513;-75
2021/07/04 04:30:05;;;;;;;15.75;11.70;;;;;;;19.30;99.22;98581.33;1647268;87;21022;-78
2021/07/04 04:32:33;;;;;;;17.53;11.93;;;;;;;19.40;99.00;98580.53;1606374;89;20957;-78
2021/07/04 04:35:01;;;;;;;14.75;12.00;;;;;;;19.45;98.31;98581.52;1616507;88;21016;-80
2021/07/04 04:37:28;;;;;;;14.85;11.83;;;;;;;19.51;98.12;98578.34;1624606;87;21725;-79
2021/07/04 04:39:57;;;;;;;14.95;13.05;;;;;;;19.53;97.60;98576.78;1606039;88;20910;-81
2021/07/04 04:42:24;;;;;;;11.12;9.85;;;;;;;19.59;97.76;98573.80;1616984;85;21477;-83
2021/07/04 04:44:50;;;;;;;16.35;13.15;;;;;;;19.66;97.27;98573.76;1628338;85;20996;-76
2021/07/04 04:47:17;;;;;;;17.27;12.85;;;;;;;19.73;97.07;98572.36;1619287;87;20954;-76
2021/07/04 04:49:43;;;;;;;16.27;12.37;;;;;;;19.79;96.68;98576.33;1625713;85;22122;-76
2021/07/04 04:52:11;;;;;;;18.62;14.13;;;;;;;19.86;96.85;98569.95;1605970;88;20969;-75
2021/07/04 04:54:39;;;;;;;21.40;15.03;;;;;;;19.94;96.57;98567.94;1605976;89;20962;-75
2021/07/04 04:57:06;;;;;;;17.42;11.83;;;;;;;19.98;96.39;98568.73;1606296;89;21449;-74
2021/07/04 04:59:35;;;;;;;14.15;10.55;;;;;;;20.03;96.54;98564.14;1607670;88;21001;-74
2021/07/04 05:02:02;;;;;;;12.53;10.20;;;;;;;20.15;96.77;98570.67;1606292;88;21122;-74
2021/07/04 05:04:28;;;;;;;13.25;9.70;;;;;;;20.25;95.22;98559.27;1605944;88;20878;-75
2021/07/04 05:06:55;;;;;;;11.80;9.13;;;;;;;20.34;95.40;98556.23;1606049;89;21496;-76
2021/07/04 05:09:22;;;;;;;10.88;9.25;;;;;;;20.49;94.72;98561.78;1606062;89;20906;-75
2021/07/04 05:11:49;;;;;;;18.00;9.40;;;;;;;20.58;92.56;98556.56;1606389;89;20890;-76
2021/07/04 05:14:17;;;;;;;9.03;8.13;;;;;;;20.62;92.48;98555.95;1606404;85;21157;-76
2021/07/04 05:16:44;;;;;;;11.30;9.18;;;;;;;20.69;92.46;98562.28;1636864;87;21587;-77
2021/07/04 05:19:12;;;;;;;12.58;9.95;;;;;;;20.80;91.88;98566.38;1621568;88;21064;-75
2021/07/04 05:21:40;;;;;;;11.25;9.20;;;;;;;20.92;91.21;98565.90;1621549;87;20911;-76
2021/07/04 05:24:08;;;;;;;12.03;9.10;;;;;;;21.04;90.57;98563.23;1621580;88;20962;-78
2021/07/04 05:26:35;;;;;;;11.80;8.65;;;;;;;21.14;89.19;98564.36;1621580;87;21155;-79
2021/07/04 05:29:01;;;;;;;12.43;8.70;;;;;;;21.17;89.13;98562.14;1621542;87;20973;-84
2021/07/04 05:31:27;;;;;;;10.95;8.33;;;;;;;21.22;89.12;98568.11;1621609;88;20934;-80
2021/07/04 05:33:54;;;;;;;11.95;9.03;;;;;;;21.29;89.09;98568.66;1621537;88;21018;-77
2021/07/04 05:36:20;;;;;;;9.88;8.65;;;;;;;21.41;88.89;98574.52;1621535;88;21967;-78
2021/07/04 05:38:47;;;;;;;12.82;8.75;;;;;;;21.55;88.45;98568.62;1621535;88;21090;-78
2021/07/04 05:41:13;;;;;;;10.25;8.83;;;;;;;21.66;88.22;98564.52;1621543;88;21025;-81
2021/07/04 05:43:43;;;;;;;12.35;8.48;;;;;;;21.75;87.53;98566.23;1622029;87;20990;-82
2021/07/04 05:46:10;;;;;;;13.22;9.00;;;;;;;21.82;86.02;98567.37;1622196;88;21513;-82
2021/07/04 05:48:37;;;;;;;9.43;8.18;;;;;;;21.85;85.73;98568.73;1621582;88;20918;-73
2021/07/04 05:51:04;;;;;;;10.08;8.13;;;;;;;21.91;85.57;98573.27;1612698;85;22025;-75
2021/07/04 05:53:30;;;;;;;12.68;8.00;;;;;;;21.98;85.52;98572.55;1630444;85;21009;-73
2021/07/04 05:55:57;;;;;;;8.78;7.97;;;;;;;22.06;84.91;98576.09;1633190;85;21052;-71
2021/07/04 05:58:23;;;;;;;11.28;8.05;;;;;;;22.15;84.65;98575.61;1641318;87;21548;-77
2021/07/04 06:00:50;;;;;;;10.25;7.12;;;;;;;22.28;84.11;98580.24;1633151;85;20974;-78
2021/07/04 06:03:16;;;;;;;10.95;8.18;;;;;;;22.38;82.50;98575.13;1647019;85;21480;-80
2021/07/04 06:05:42;;;;;;;13.68;7.87;;;;;;;22.46;83.41;98575.84;1642515;86;21006;-78
2021/07/04 06:08:10;;;;;;;9.75;7.33;;;;;;;22.60;83.09;98571.43;1642356;86;21483;-77
2021/07/04 06:10:36;;;;;;;15.23;7.87;;;;;;;22.76;81.96;98567.23;1642336;86;20952;-77
2021/07/04 06:13:04;;;;;;;12.33;7.90;;;;;;;22.87;80.58;98572.10;1642202;87;21507;-72
2021/07/04 06:15:31;;;;;;;8.75;7.20;;;;;;;22.91;80.09;98563.05;1642351;87;21502;-72
2021/07/04 06:17:57;;;;;;;8.55;7.65;;;;;;;23.03;80.51;98563.27;1642606;86;20947;-78
2021/07/04 06:20:24;;;;;;;7.85;7.05;;;;;;;23.17;79.87;98567.82;1642362;85;20950;-78
2021/07/04 06:22:53;;;;;;;9.38;7.83;;;;;;;23.30;78.70;98562.42;1642567;85;20916;-78
2021/07/04 06:25:18;;;;;;;7.25;6.55;;;;;;;23.38;77.93;98559.09;1642418;87;20900;-75
2021/07/04 06:27:44;;;;;;;9.33;6.95;;;;;;;23.47;77.80;98554.34;1642793;85;22104;-81
2021/07/04 06:30:12;;;;;;;7.87;6.80;;;;;;;23.54;76.12;98554.25;1642271;87;20990;-79
2021/07/04 06:32:39;;;;;;;10.80;7.10;;;;;;;23.57;76.12;98553.40;1642466;86;21581;-77
2021/07/04 06:35:07;;;;;;;10.58;7.53;;;;;;;23.61;76.91;98552.73;1642438;87;20956;-80
2021/07/04 06:37:33;;;;;;;10.45;7.60;;;;;;;23.69;76.10;98554.77;1642727;87;20920;-76
2021/07/04 06:40:00;;;;;;;7.78;6.85;;;;;;;23.81;75.00;98549.15;1642489;87;21801;-75
2021/07/04 06:42:26;;;;;;;7.25;6.20;;;;;;;23.89;74.90;98543.59;1642705;87;20904;-76
2021/07/04 06:44:54;;;;;;;8.20;6.42;;;;;;;23.97;74.50;98548.64;1642317;87;20919;-75
2021/07/04 06:47:20;;;;;;;8.48;6.83;;;;;;;24.08;74.45;98550.45;1642522;87;20941;-74
2021/07/04 06:49:47;;;;;;;6.95;6.25;;;;;;;24.23;73.73;98548.94;1642443;86;20949;-72
2021/07/04 06:52:15;;;;;;;6.97;6.12;;;;;;;24.32;71.89;98547.14;1642355;87;21559;-72
2021/07/04 06:54:41;;;;;;;9.73;6.25;;;;;;;24.33;71.72;98557.14;1640089;85;21608;-73
2021/07/04 06:59:52;;;;;;;7.25;6.15;;;;;;;24.26;71.81;98550.27;1638765;87;20930;-74
2021/07/04 07:02:18;;;;;;;8.23;6.70;;;;;;;24.24;71.81;98552.72;1648075;85;21480;-79
2021/07/04 07:04:46;;;;;;;7.15;6.12;;;;;;;24.25;71.53;98552.93;1641790;87;21036;-73
2021/07/04 07:07:14;;;;;;;11.15;7.17;;;;;;;24.31;70.42;98551.17;1647502;87;21513;-78
2021/07/04 07:09:41;;;;;;;6.70;6.03;;;;;;;24.46;71.98;98550.88;1646446;86;21075;-77
2021/07/04 07:12:08;;;;;;;7.28;6.58;;;;;;;24.64;70.45;98549.89;1633302;85;21663;-74
2021/07/04 07:14:34;;;;;;;9.15;6.35;;;;;;;24.74;70.42;98550.27;1647114;85;21599;-75
2021/07/04 07:17:01;;;;;;;8.05;5.78;;;;;;;24.96;70.42;98552.77;1644177;85;21558;-72
2021/07/04 07:19:27;;;;;;;7.50;6.28;;;;;;;25.27;69.62;98544.03;1626077;87;21187;-71
2021/07/04 07:21:53;;;;;;;9.25;6.10;;;;;;;25.56;67.36;98548.30;1605420;89;21029;-72
2021/07/04 07:24:20;;;;;;;9.70;6.55;;;;;;;25.63;66.63;98544.69;1605162;89;21101;-74
2021/07/04 07:26:48;;;;;;;7.95;7.10;;;;;;;25.59;65.82;98542.59;1605202;89;21112;-74
2021/07/04 07:29:15;;;;;;;7.42;6.58;;;;;;;25.37;65.30;98547.80;1605274;89;21520;-74
2021/07/04 07:31:42;;;;;;;9.50;6.50;;;;;;;25.14;66.39;98545.95;1605179;89;21025;-75
2021/07/04 07:34:08;;;;;;;9.20;6.17;;;;;;;25.02;67.60;98553.05;1605304;89;21077;-76
2021/07/04 07:36:35;;;;;;;7.75;6.95;;;;;;;25.06;68.71;98551.56;1605241;89;21520;-78
2021/07/04 07:39:01;;;;;;;7.75;6.95;;;;;;;25.17;67.88;98546.48;1605299;88;21053;-76
2021/07/04 07:41:30;;;;;;;8.15;6.47;;;;;;;25.22;66.64;98554.38;1605569;88;21266;-73
2021/07/04 07:43:56;;;;;;;9.48;6.40;;;;;;;25.22;65.84;98553.77;1605900;89;21022;-76
2021/07/04 07:46:24;;;;;;;7.00;6.30;;;;;;;25.24;65.74;98556.14;1605923;89;21006;-75
2021/07/04 07:48:51;;;;;;;8.48;6.70;;;;;;;25.24;65.17;98556.14;1630590;85;21021;-73
2021/07/04 07:51:37;;;;;;;13.93;6.62;;;;;;;25.31;65.32;98557.38;1639161;85;20982;-71
2021/07/04 07:54:05;;;;;;;12.93;7.00;;;;;;;25.42;65.02;98557.88;1631838;85;21772;-72
2021/07/04 07:56:31;;;;;;;7.35;6.62;;;;;;;25.47;64.93;98554.53;1632583;87;21045;-71
2021/07/04 07:58:58;;;;;;;8.30;6.30;;;;;;;25.52;65.69;98546.19;1621283;88;20930;-78
2021/07/04 08:01:25;;;;;;;8.50;6.37;;;;;;;25.65;64.47;98545.06;1622120;85;20982;-77
2021/07/04 08:03:52;;;;;;;9.55;6.83;;;;;;;25.83;63.28;98547.41;1623524;85;21064;-80
2021/07/04 08:06:19;;;;;;;6.90;6.17;;;;;;;26.01;63.92;98555.34;1635410;87;20990;-79
2021/07/04 08:08:46;;;;;;;8.35;6.92;;;;;;;26.14;62.78;98558.99;1648214;87;20967;-75
2021/07/04 08:11:14;;;;;;;7.58;6.10;;;;;;;26.26;62.76;98558.25;1648012;87;21009;-76
2021/07/04 08:13:42;;;;;;;10.95;7.00;;;;;;;26.42;62.46;98556.64;1647989;86;20998;-77
2021/07/04 08:16:10;;;;;;;7.97;5.78;;;;;;;26.56;61.58;98549.98;1647979;86;20930;-74
2021/07/04 08:18:37;;;;;;;8.73;6.12;;;;;;;26.65;60.89;98554.30;1667349;85;21954;-74
2021/07/04 08:21:04;;;;;;;6.00;5.40;;;;;;;26.86;60.00;98561.31;1675465;85;20968;-75
2021/07/04 08:23:30;;;;;;;9.78;5.37;;;;;;;26.99;59.39;98559.16;1675500;85;20849;-74
2021/07/04 08:25:56;;;;;;;6.22;5.53;;;;;;;27.23;58.21;98560.37;1675715;85;20889;-73
2021/07/04 08:28:22;;;;;;;5.75;5.03;;;;;;;27.52;57.48;98551.77;1675519;85;21463;-73
2021/07/04 08:30:49;;;;;;;5.78;5.25;;;;;;;27.83;56.37;98547.06;1675667;85;21035;-81
2021/07/04 08:33:15;;;;;;;7.22;5.40;;;;;;;28.13;55.21;98549.83;1654673;85;21034;-74
2021/07/04 08:35:41;;;;;;;7.95;5.15;;;;;;;28.38;55.16;98544.69;1624038;87;20993;-76
2021/07/04 08:38:08;;;;;;;5.75;5.05;;;;;;;28.70;54.90;98544.11;1636728;85;21035;-74
2021/07/04 08:40:35;;;;;;;6.17;5.15;;;;;;;28.98;52.06;98546.44;1642207;87;21034;-74
2021/07/04 08:43:04;;;;;;;7.47;4.85;;;;;;;29.21;52.46;98550.94;1642064;87;21025;-74
2021/07/04 08:45:38;;;;;;;11.10;4.80;;;;;;;29.52;51.64;98554.33;1642108;87;21008;-74
2021/07/04 08:48:06;;;;;;;5.50;4.90;;;;;;;29.79;50.85;98560.03;1641985;87;20988;-75
2021/07/04 08:50:33;;;;;;;4.97;4.47;;;;;;;29.88;50.38;98555.80;1623153;87;21008;-74
2021/07/04 08:53:00;;;;;;;5.20;4.62;;;;;;;29.80;49.32;98555.17;1642325;87;21420;-79
2021/07/04 08:55:28;;;;;;;5.03;4.53;;;;;;;29.88;49.12;98557.84;1638578;85;20982;-75
2021/07/04 08:57:57;;;;;;;4.60;4.20;;;;;;;29.66;47.58;98563.62;1639508;87;21010;-75
2021/07/04 09:00:25;;;;;;;5.28;4.35;;;;;;;29.38;46.78;98565.59;1647892;87;20934;-76
2021/07/04 09:02:52;;;;;;;4.90;4.40;;;;;;;29.21;46.88;98562.87;1648169;87;21495;-76
2021/07/04 09:05:19;;;;;;;4.90;4.50;;;;;;;29.23;47.61;98569.63;1648039;87;20879;-76
2021/07/04 09:07:46;;;;;;;6.75;4.40;;;;;;;29.47;47.95;98565.63;1647976;87;21118;-75
2021/07/04 09:10:18;;;;;;;5.47;4.28;;;;;;;29.72;47.32;98566.00;1647887;87;20974;-76
2021/07/04 09:12:48;;;;;;;7.35;4.50;;;;;;;29.79;48.11;98573.39;1629797;87;20985;-78
2021/07/04 09:15:22;;;;;;;4.85;4.30;;;;;;;29.80;48.72;98577.17;1629610;87;21525;-77
2021/07/04 09:17:51;;;;;;;5.15;4.65;;;;;;;29.71;48.17;98572.12;1648520;87;20970;-77
2021/07/04 09:20:34;;;;;;;5.15;4.65;;;;;;;29.51;47.76;98563.44;1648073;87;21137;-72
2021/07/04 09:23:01;;;;;;;5.30;4.30;;;;;;;29.25;48.59;98566.34;1647994;87;21647;-72
2021/07/04 09:25:38;;;;;;;4.80;4.40;;;;;;;29.05;50.14;98577.23;1666094;85;21026;-76
2021/07/04 09:28:10;;;;;;;4.92;4.50;;;;;;;28.87;49.65;98569.48;1647935;87;20974;-79
2021/07/04 09:30:53;;;;;;;7.28;4.60;;;;;;;28.81;50.88;98574.13;1648274;87;21470;-80
2021/07/04 09:33:35;;;;;;;8.75;4.87;;;;;;;28.82;49.90;98560.99;1636040;85;21505;-77
2021/07/04 09:36:08;;;;;;;7.40;4.80;;;;;;;29.10;49.03;98559.69;1627279;85;21068;-79
2021/07/04 09:38:41;;;;;;;5.22;4.72;;;;;;;29.48;49.32;98557.30;1648085;87;21576;-78
2021/07/04 09:41:10;;;;;;;6.78;4.80;;;;;;;29.45;46.08;98559.68;1648029;86;21029;-82
2021/07/04 09:43:37;;;;;;;6.42;4.53;;;;;;;29.13;47.16;98558.13;1648079;86;20966;-81
2021/07/04 09:46:05;;;;;;;6.45;5.53;;;;;;;28.78;49.32;98555.29;1648050;87;21970;-80
2021/07/04 09:48:39;;;;;;;25.17;14.35;;;;;;;28.52;50.02;98553.25;1648023;86;21552;-77
2021/07/04 09:51:26;;;;;;;10.08;6.72;;;;;;;28.30;51.60;98546.86;1648107;87;21588;-78
2021/07/04 09:53:57;;;;;;;13.50;6.55;;;;;;;28.49;50.76;98543.66;1629649;87;20954;-75
2021/07/04 09:56:32;;;;;;;6.25;5.40;;;;;;;28.86;51.33;98541.88;1648106;86;21018;-75
2021/07/04 09:59:02;;;;;;;4.95;4.45;;;;;;;29.37;49.58;98544.23;1629825;87;21736;-74
2021/07/04 10:01:50;;;;;;;6.15;4.85;;;;;;;29.79;46.99;98537.41;1635355;85;20997;-75
2021/07/04 10:04:29;;;;;;;5.08;4.60;;;;;;;30.15;48.46;98531.60;1599610;88;21001;-74
2021/07/04 10:06:56;;;;;;;5.55;4.37;;;;;;;30.62;48.05;98526.06;1606433;88;20902;-74
2021/07/04 10:09:26;;;;;;;5.53;4.70;;;;;;;30.97;46.33;98524.97;1605946;89;20973;-75
2021/07/04 10:11:54;;;;;;;67.85;38.33;;;;;;;31.13;45.73;98526.03;1606063;89;21177;-76
2021/07/04 10:14:20;;;;;;;5.92;4.78;;;;;;;31.20;45.43;98524.24;1605998;89;20918;-76
2021/07/04 10:16:49;;;;;;;11.08;6.75;;;;;;;31.32;43.32;98514.73;1606011;89;20914;-76
2021/07/04 10:19:23;;;;;;;5.25;4.75;;;;;;;31.50;44.02;98515.25;1605992;89;20965;-75
2021/07/04 10:22:02;;;;;;;9.78;5.75;;;;;;;31.70;43.85;98517.52;1605943;89;21052;-75
2021/07/04 10:24:29;;;;;;;5.95;4.55;;;;;;;31.69;43.76;98512.47;1605944;89;21561;-77
2021/07/04 10:26:57;;;;;;;5.17;4.10;;;;;;;31.45;43.79;98513.86;1605941;89;20926;-76
2021/07/04 10:29:28;;;;;;;5.37;3.75;;;;;;;31.08;43.66;98521.77;1605899;89;20961;-76
2021/07/04 10:31:56;;;;;;;;;;;;;;;30.70;45.17;98518.14;1608291;89;21029;-76
2021/07/04 10:34:27;;;;;;;7.40;5.55;;;;;;;30.34;46.18;98525.30;1601025;85;20176;-80
2021/07/04 10:37:02;;;;;;;6.15;4.28;;;;;;;30.00;47.07;98524.41;1636255;87;21016;-74
2021/07/04 10:39:33;;;;;;;4.45;3.98;;;;;;;29.82;46.32;98529.40;1647956;87;20974;-82
2021/07/04 10:42:07;;;;;;;4.37;3.98;;;;;;;29.63;46.10;98522.14;1648299;87;20970;-78
2021/07/04 10:44:48;;;;;;;5.28;3.75;;;;;;;29.46;45.11;98520.23;1647882;87;20938;-74
2021/07/04 10:47:26;;;;;;;4.72;4.20;;;;;;;29.27;46.40;98515.00;1635879;85;21029;-74
2021/07/04 10:50:09;;;;;;;6.35;4.30;;;;;;;29.27;47.64;98515.78;1616874;86;21125;-74
2021/07/04 10:52:42;;;;;;;10.63;8.15;;;;;;;29.39;47.35;98510.63;1605925;89;20954;-74
2021/07/04 10:55:14;;;;;;;14.63;7.05;;;;;;;29.74;47.93;98506.92;1595171;89;34504;-75
2021/07/04 10:57:54;;;;;;;8.70;5.70;;;;;;;30.17;46.93;98502.98;1606165;89;20973;-75
2021/07/04 11:00:37;;;;;;;8.35;4.70;;;;;;;30.53;46.99;98495.69;1606194;89;20959;-75
2021/07/04 11:03:07;;;;;;;5.60;4.37;;;;;;;30.90;46.14;98506.27;1605963;89;21589;-74
2021/07/04 11:05:44;;;;;;;3.87;3.52;;;;;;;31.05;44.15;98502.11;1605848;89;21600;-74
2021/07/04 11:08:17;;;;;;;5.70;3.52;;;;;;;30.85;45.49;98502.66;1614328;87;21108;-74
2021/07/04 11:10:56;;;;;;;4.03;3.62;;;;;;;30.69;46.17;98491.08;1661151;86;21060;-73
2021/07/04 11:13:29;;;;;;;7.40;4.15;;;;;;;30.68;46.60;98498.00;1659887;86;21030;-73
2021/07/04 11:16:19;;;;;;;6.22;3.77;;;;;;;30.71;46.34;98497.05;1658140;86;22000;-75
2021/07/04 11:18:54;;;;;;;4.80;4.10;;;;;;;30.72;45.94;98501.45;1659672;85;21132;-74
2021/07/04 11:21:25;;;;;;;4.85;4.12;;;;;;;30.60;45.22;98505.30;1622406;87;21048;-76
2021/07/04 11:24:12;;;;;;;4.03;3.62;;;;;;;30.35;46.95;98502.80;1609704;89;21540;-74
2021/07/04 11:26:39;;;;;;;4.42;3.98;;;;;;;29.96;47.19;98501.11;1585120;89;20941;-75
2021/07/04 11:29:10;;;;;;;4.92;3.83;;;;;;;29.61;48.66;98502.03;1644823;86;21508;-75
2021/07/04 11:31:40;;;;;;;14.53;4.65;;;;;;;29.32;49.28;98496.02;1675177;85;21375;-75
2021/07/04 11:34:07;;;;;;;18.95;4.92;;;;;;;29.14;49.71;98502.40;1682532;85;20908;-74